sensor_id;sensor_type;location;lat;lon;timestamp;pressure;altitude;pressure_sealevel;temperature;humidity
72055;BME280;59936;51.490;5.436;2022-11-15T00:03:18;100540.00;;;6.64;100.00
72055;BME280;59936;51.490;5.436;2022-11-15T00:08:22;100543.00;;;6.79;100.00
72055;BME280;59936;51.490;5.436;2022-11-15T00:13:25;100534.88;;;6.90;100.00
72055;BME280;59936;51.490;5.436;2022-11-15T00:18:27;100538.88;;;7.00;100.00
72055;BME280;59936;51.490;5.436;2022-11-15T00:23:32;100534.94;;;7.15;100.00
72055;BME280;59936;51.490;5.436;2022-11-15T00:28:34;100538.69;;;7.32;100.00
72055;BME280;59936;51.490;5.436;2022-11-15T00:33:37;100538.50;;;7.38;100.00
72055;BME280;59936;51.490;5.436;2022-11-15T00:38:41;100539.00;;;7.50;100.00
72055;BME280;59936;51.490;5.436;2022-11-15T00:43:44;100532.75;;;7.55;100.00
72055;BME280;59936;51.490;5.436;2022-11-15T00:48:46;100522.97;;;7.62;100.00
72055;BME280;59936;51.490;5.436;2022-11-15T00:53:49;100518.47;;;7.67;100.00
72055;BME280;59936;51.490;5.436;2022-11-15T00:58:50;100513.78;;;7.77;100.00
72055;BME280;59936;51.490;5.436;2022-11-15T01:03:55;100509.50;;;7.76;100.00
72055;BME280;59936;51.490;5.436;2022-11-15T01:08:57;100515.09;;;7.89;100.00
72055;BME280;59936;51.490;5.436;2022-11-15T01:14:01;100511.53;;;7.92;100.00
72055;BME280;59936;51.490;5.436;2022-11-15T01:19:02;100507.78;;;8.01;100.00
72055;BME280;59936;51.490;5.436;2022-11-15T01:24:07;100503.94;;;8.11;100.00
72055;BME280;59936;51.490;5.436;2022-11-15T01:29:12;100495.78;;;8.20;100.00
72055;BME280;59936;51.490;5.436;2022-11-15T01:34:15;100494.53;;;8.31;100.00
72055;BME280;59936;51.490;5.436;2022-11-15T01:39:18;100483.88;;;8.37;100.00
72055;BME280;59936;51.490;5.436;2022-11-15T01:44:42;100487.00;;;8.45;100.00
72055;BME280;59936;51.490;5.436;2022-11-15T01:49:51;100486.69;;;8.55;100.00
72055;BME280;59936;51.490;5.436;2022-11-15T01:55:05;100483.56;;;8.69;100.00
72055;BME280;59936;51.490;5.436;2022-11-15T02:00:12;100483.88;;;8.82;100.00
72055;BME280;59936;51.490;5.436;2022-11-15T02:05:15;100483.50;;;8.91;100.00
72055;BME280;59936;51.490;5.436;2022-11-15T02:10:20;100470.38;;;8.94;100.00
72055;BME280;59936;51.490;5.436;2022-11-15T02:15:28;100473.28;;;9.07;100.00
72055;BME280;59936;51.490;5.436;2022-11-15T02:20:47;100473.75;;;9.17;100.00
72055;BME280;59936;51.490;5.436;2022-11-15T02:26:17;100467.31;;;9.26;100.00
72055;BME280;59936;51.490;5.436;2022-11-15T02:31:42;100460.06;;;9.33;100.00
72055;BME280;59936;51.490;5.436;2022-11-15T02:36:57;100460.69;;;9.39;100.00
72055;BME280;59936;51.490;5.436;2022-11-15T02:42:09;100457.03;;;9.44;100.00
72055;BME280;59936;51.490;5.436;2022-11-15T02:47:33;100458.50;;;9.49;100.00
72055;BME280;59936;51.490;5.436;2022-11-15T02:52:40;100447.81;;;9.56;100.00
72055;BME280;59936;51.490;5.436;2022-11-15T02:57:51;100439.00;;;9.58;100.00
72055;BME280;59936;51.490;5.436;2022-11-15T03:03:14;100429.38;;;9.60;100.00
72055;BME280;59936;51.490;5.436;2022-11-15T03:08:31;100431.13;;;9.60;100.00
72055;BME280;59936;51.490;5.436;2022-11-15T03:13:40;100431.13;;;9.60;100.00
72055;BME280;59936;51.490;5.436;2022-11-15T03:18:53;100424.78;;;9.65;100.00
72055;BME280;59936;51.490;5.436;2022-11-15T03:24:03;100435.06;;;9.69;100.00
72055;BME280;59936;51.490;5.436;2022-11-15T03:29:10;100432.28;;;9.73;100.00
72055;BME280;59936;51.490;5.436;2022-11-15T03:34:23;100426.84;;;9.78;100.00
72055;BME280;59936;51.490;5.436;2022-11-15T03:39:31;100425.88;;;9.81;100.00
72055;BME280;59936;51.490;5.436;2022-11-15T03:44:39;100433.69;;;9.81;100.00
72055;BME280;59936;51.490;5.436;2022-11-15T03:49:51;100437.97;;;9.82;100.00
72055;BME280;59936;51.490;5.436;2022-11-15T03:54:56;100437.06;;;9.83;100.00
72055;BME280;59936;51.490;5.436;2022-11-15T04:00:02;100436.13;;;9.84;100.00
72055;BME280;59936;51.490;5.436;2022-11-15T04:05:07;100427.56;;;9.82;100.00
72055;BME280;59936;51.490;5.436;2022-11-15T04:10:09;100430.22;;;9.80;100.00
72055;BME280;59936;51.490;5.436;2022-11-15T04:15:14;100422.47;;;9.78;100.00
72055;BME280;59936;51.490;5.436;2022-11-15T04:20:21;100420.66;;;9.81;100.00
72055;BME280;59936;51.490;5.436;2022-11-15T04:25:41;100428.63;;;9.77;100.00
72055;BME280;59936;51.490;5.436;2022-11-15T04:30:43;100423.34;;;9.79;100.00
72055;BME280;59936;51.490;5.436;2022-11-15T04:35:48;100418.94;;;9.79;100.00
72055;BME280;59936;51.490;5.436;2022-11-15T04:41:03;100432.91;;;9.78;100.00
72055;BME280;59936;51.490;5.436;2022-11-15T04:46:06;100432.84;;;9.80;100.00
72055;BME280;59936;51.490;5.436;2022-11-15T04:51:09;100431.22;;;9.77;100.00
72055;BME280;59936;51.490;5.436;2022-11-15T04:56:13;100426.06;;;9.76;100.00
72055;BME280;59936;51.490;5.436;2022-11-15T05:01:15;100427.63;;;9.80;100.00
72055;BME280;59936;51.490;5.436;2022-11-15T05:06:18;100422.34;;;9.82;100.00
72055;BME280;59936;51.490;5.436;2022-11-15T05:11:20;100427.41;;;9.85;100.00
72055;BME280;59936;51.490;5.436;2022-11-15T05:16:22;100425.72;;;9.84;100.00
72055;BME280;59936;51.490;5.436;2022-11-15T05:21:25;100424.88;;;9.83;100.00
72055;BME280;59936;51.490;5.436;2022-11-15T05:26:28;100420.22;;;9.90;100.00
72055;BME280;59936;51.490;5.436;2022-11-15T05:31:29;100411.47;;;9.91;100.00
72055;BME280;59936;51.490;5.436;2022-11-15T05:36:35;100406.41;;;9.88;100.00
72055;BME280;59936;51.490;5.436;2022-11-15T05:41:41;100408.13;;;9.89;100.00
72055;BME280;59936;51.490;5.436;2022-11-15T05:46:45;100408.25;;;9.86;100.00
72055;BME280;59936;51.490;5.436;2022-11-15T05:51:52;100417.00;;;9.85;100.00
72055;BME280;59936;51.490;5.436;2022-11-15T05:56:55;100421.16;;;9.89;100.00
72055;BME280;59936;51.490;5.436;2022-11-15T06:01:57;100423.69;;;9.90;100.00
72055;BME280;59936;51.490;5.436;2022-11-15T06:07:00;100434.81;;;9.94;100.00
72055;BME280;59936;51.490;5.436;2022-11-15T06:12:01;100432.06;;;9.97;100.00
72055;BME280;59936;51.490;5.436;2022-11-15T06:17:03;100431.00;;;10.01;100.00
72055;BME280;59936;51.490;5.436;2022-11-15T06:22:06;100430.06;;;10.02;100.00
72055;BME280;59936;51.490;5.436;2022-11-15T06:27:10;100433.59;;;10.01;100.00
72055;BME280;59936;51.490;5.436;2022-11-15T06:32:12;100431.22;;;9.97;100.00
72055;BME280;59936;51.490;5.436;2022-11-15T06:37:15;100438.41;;;9.91;100.00
72055;BME280;59936;51.490;5.436;2022-11-15T06:42:16;100444.88;;;9.83;100.00
72055;BME280;59936;51.490;5.436;2022-11-15T06:47:19;100444.31;;;9.76;100.00
72055;BME280;59936;51.490;5.436;2022-11-15T06:52:22;100453.19;;;9.72;100.00
72055;BME280;59936;51.490;5.436;2022-11-15T06:57:24;100460.28;;;9.68;100.00
72055;BME280;59936;51.490;5.436;2022-11-15T07:02:26;100459.38;;;9.69;100.00
72055;BME280;59936;51.490;5.436;2022-11-15T07:07:29;100457.66;;;9.68;100.00
72055;BME280;59936;51.490;5.436;2022-11-15T07:12:30;100469.81;;;9.69;100.00
72055;BME280;59936;51.490;5.436;2022-11-15T07:17:33;100475.97;;;9.66;100.00
72055;BME280;59936;51.490;5.436;2022-11-15T07:22:37;100475.91;;;9.68;100.00
72055;BME280;59936;51.490;5.436;2022-11-15T07:27:38;100477.56;;;9.71;100.00
72055;BME280;59936;51.490;5.436;2022-11-15T07:32:40;100485.44;;;9.69;100.00
72055;BME280;59936;51.490;5.436;2022-11-15T07:37:43;100480.38;;;9.66;100.00
72055;BME280;59936;51.490;5.436;2022-11-15T07:42:45;100473.53;;;9.63;100.00
72055;BME280;59936;51.490;5.436;2022-11-15T07:47:56;100458.72;;;9.64;100.00
72055;BME280;59936;51.490;5.436;2022-11-15T07:52:59;100465.78;;;9.62;100.00
72055;BME280;59936;51.490;5.436;2022-11-15T07:58:01;100469.22;;;9.62;100.00
72055;BME280;59936;51.490;5.436;2022-11-15T08:03:06;100466.84;;;9.58;100.00
72055;BME280;59936;51.490;5.436;2022-11-15T08:08:11;100476.97;;;9.64;100.00
72055;BME280;59936;51.490;5.436;2022-11-15T08:13:14;100488.19;;;9.66;100.00
72055;BME280;59936;51.490;5.436;2022-11-15T08:18:16;100483.88;;;9.65;100.00
72055;BME280;59936;51.490;5.436;2022-11-15T08:23:20;100488.50;;;9.58;100.00
72055;BME280;59936;51.490;5.436;2022-11-15T08:28:22;100473.72;;;9.59;100.00
72055;BME280;59936;51.490;5.436;2022-11-15T08:33:23;100478.13;;;9.77;100.00
72055;BME280;59936;51.490;5.436;2022-11-15T08:38:27;100459.75;;;9.81;100.00
72055;BME280;59936;51.490;5.436;2022-11-15T08:43:30;100456.63;;;10.11;100.00
72055;BME280;59936;51.490;5.436;2022-11-15T08:48:32;100454.59;;;9.98;100.00
72055;BME280;59936;51.490;5.436;2022-11-15T08:53:35;100452.28;;;10.11;100.00
72055;BME280;59936;51.490;5.436;2022-11-15T08:58:37;100449.00;;;10.25;100.00
72055;BME280;59936;51.490;5.436;2022-11-15T09:03:39;100444.84;;;10.95;100.00
72055;BME280;59936;51.490;5.436;2022-11-15T09:08:42;100436.66;;;11.19;100.00
72055;BME280;59936;51.490;5.436;2022-11-15T09:13:44;100428.06;;;10.46;100.00
72055;BME280;59936;51.490;5.436;2022-11-15T09:18:46;100411.94;;;11.08;100.00
72055;BME280;59936;51.490;5.436;2022-11-15T09:23:51;100406.72;;;11.08;100.00
72055;BME280;59936;51.490;5.436;2022-11-15T09:28:53;100411.44;;;11.36;100.00
72055;BME280;59936;51.490;5.436;2022-11-15T09:33:55;100406.88;;;11.39;100.00
72055;BME280;59936;51.490;5.436;2022-11-15T09:38:58;100396.81;;;11.65;100.00
72055;BME280;59936;51.490;5.436;2022-11-15T09:44:12;100397.91;;;10.93;100.00
72055;BME280;59936;51.490;5.436;2022-11-15T09:49:33;100397.66;;;10.98;100.00
72055;BME280;59936;51.490;5.436;2022-11-15T09:54:38;100395.03;;;11.16;100.00
72055;BME280;59936;51.490;5.436;2022-11-15T09:59:55;100393.81;;;11.05;100.00
72055;BME280;59936;51.490;5.436;2022-11-15T10:05:07;100393.19;;;11.68;100.00
72055;BME280;59936;51.490;5.436;2022-11-15T10:10:22;100384.06;;;11.59;99.61
72055;BME280;59936;51.490;5.436;2022-11-15T10:15:30;100394.59;;;11.57;96.95
72055;BME280;59936;51.490;5.436;2022-11-15T10:20:39;100389.41;;;11.90;94.97
72055;BME280;59936;51.490;5.436;2022-11-15T10:25:50;100388.13;;;11.15;92.27
72055;BME280;59936;51.490;5.436;2022-11-15T10:30:55;100382.66;;;10.68;96.43
72055;BME280;59936;51.490;5.436;2022-11-15T10:36:15;100378.81;;;10.58;96.06
72055;BME280;59936;51.490;5.436;2022-11-15T10:41:23;100364.53;;;10.65;96.89
72055;BME280;59936;51.490;5.436;2022-11-15T10:46:33;100356.75;;;10.81;96.44
72055;BME280;59936;51.490;5.436;2022-11-15T10:51:41;100342.81;;;11.32;92.94
72055;BME280;59936;51.490;5.436;2022-11-15T10:56:50;100346.34;;;12.28;92.46
72055;BME280;59936;51.490;5.436;2022-11-15T11:01:53;100324.38;;;12.30;89.60
72055;BME280;59936;51.490;5.436;2022-11-15T11:06:58;100333.72;;;11.71;89.65
72055;BME280;59936;51.490;5.436;2022-11-15T11:12:03;100323.22;;;12.20;88.85
72055;BME280;59936;51.490;5.436;2022-11-15T11:17:14;100323.63;;;12.28;88.00
72055;BME280;59936;51.490;5.436;2022-11-15T11:22:27;100294.56;;;12.78;89.47
72055;BME280;59936;51.490;5.436;2022-11-15T11:27:43;100288.53;;;11.53;90.12
72055;BME280;59936;51.490;5.436;2022-11-15T11:33:10;100266.78;;;12.16;88.58
72055;BME280;59936;51.490;5.436;2022-11-15T11:38:32;100265.72;;;12.64;84.81
72055;BME280;59936;51.490;5.436;2022-11-15T11:44:02;100264.69;;;13.10;84.31
72055;BME280;59936;51.490;5.436;2022-11-15T11:49:20;100245.47;;;12.67;82.16
72055;BME280;59936;51.490;5.436;2022-11-15T11:54:34;100234.50;;;13.46;81.95
72055;BME280;59936;51.490;5.436;2022-11-15T11:59:47;100227.03;;;13.68;81.38
72055;BME280;59936;51.490;5.436;2022-11-15T12:05:04;100219.84;;;12.72;81.45
72055;BME280;59936;51.490;5.436;2022-11-15T12:10:20;100210.78;;;12.49;81.18
72055;BME280;59936;51.490;5.436;2022-11-15T12:15:28;100202.94;;;12.49;81.97
72055;BME280;59936;51.490;5.436;2022-11-15T12:20:36;100195.06;;;12.64;82.71
72055;BME280;59936;51.490;5.436;2022-11-15T12:25:45;100186.25;;;12.94;80.80
72055;BME280;59936;51.490;5.436;2022-11-15T12:31:00;100173.13;;;12.52;81.71
72055;BME280;59936;51.490;5.436;2022-11-15T12:36:09;100168.34;;;12.44;79.64
72055;BME280;59936;51.490;5.436;2022-11-15T12:41:15;100149.84;;;12.32;78.31
72055;BME280;59936;51.490;5.436;2022-11-15T12:52:23;100150.78;;;12.31;80.69
72055;BME280;59936;51.490;5.436;2022-11-15T12:57:42;100136.00;;;12.59;81.96
72055;BME280;59936;51.490;5.436;2022-11-15T13:02:45;100119.16;;;12.05;80.23
72055;BME280;59936;51.490;5.436;2022-11-15T13:07:57;100110.53;;;11.89;80.36
72055;BME280;59936;51.490;5.436;2022-11-15T13:13:00;100098.97;;;11.78;83.41
72055;BME280;59936;51.490;5.436;2022-11-15T13:18:37;100083.28;;;11.78;82.44
72055;BME280;59936;51.490;5.436;2022-11-15T13:23:40;100083.97;;;11.96;83.66
72055;BME280;59936;51.490;5.436;2022-11-15T13:28:44;100081.91;;;12.02;82.93
72055;BME280;59936;51.490;5.436;2022-11-15T13:33:50;100070.59;;;11.87;83.72
72055;BME280;59936;51.490;5.436;2022-11-15T13:38:57;100062.66;;;11.88;83.93
72055;BME280;59936;51.490;5.436;2022-11-15T13:44:02;100054.81;;;11.74;84.35
72055;BME280;59936;51.490;5.436;2022-11-15T13:49:09;100049.66;;;11.72;85.36
72055;BME280;59936;51.490;5.436;2022-11-15T13:54:20;100034.34;;;11.66;85.45
72055;BME280;59936;51.490;5.436;2022-11-15T13:59:29;100023.91;;;11.51;86.32
72055;BME280;59936;51.490;5.436;2022-11-15T14:04:36;100023.22;;;11.48;87.45
72055;BME280;59936;51.490;5.436;2022-11-15T14:09:40;100008.75;;;11.42;88.16
72055;BME280;59936;51.490;5.436;2022-11-15T14:14:45;100007.94;;;11.41;88.34
72055;BME280;59936;51.490;5.436;2022-11-15T14:19:49;99983.31;;;11.45;86.74
72055;BME280;59936;51.490;5.436;2022-11-15T14:25:14;99975.84;;;11.54;87.11
72055;BME280;59936;51.490;5.436;2022-11-15T14:30:18;99975.16;;;11.50;87.83
72055;BME280;59936;51.490;5.436;2022-11-15T14:35:22;99963.63;;;11.54;86.67
72055;BME280;59936;51.490;5.436;2022-11-15T14:40:25;99955.78;;;11.54;88.26
72055;BME280;59936;51.490;5.436;2022-11-15T14:45:27;99950.56;;;11.54;88.89
72055;BME280;59936;51.490;5.436;2022-11-15T14:50:33;99945.13;;;11.43;90.73
72055;BME280;59936;51.490;5.436;2022-11-15T14:55:36;99941.19;;;11.50;90.18
72055;BME280;59936;51.490;5.436;2022-11-15T15:00:39;99926.00;;;11.42;90.97
72055;BME280;59936;51.490;5.436;2022-11-15T15:05:43;99921.22;;;11.49;90.50
72055;BME280;59936;51.490;5.436;2022-11-15T15:10:45;99906.22;;;11.38;91.98
72055;BME280;59936;51.490;5.436;2022-11-15T15:15:50;99900.06;;;11.39;91.50
72055;BME280;59936;51.490;5.436;2022-11-15T15:20:56;99892.53;;;11.35;92.10
72055;BME280;59936;51.490;5.436;2022-11-15T15:26:01;99889.91;;;11.35;92.48
72055;BME280;59936;51.490;5.436;2022-11-15T15:31:03;99882.25;;;11.31;93.83
72055;BME280;59936;51.490;5.436;2022-11-15T15:36:09;99886.81;;;11.28;94.04
72055;BME280;59936;51.490;5.436;2022-11-15T15:41:14;99877.41;;;11.25;94.46
72055;BME280;59936;51.490;5.436;2022-11-15T15:46:18;99872.00;;;11.28;94.48
72055;BME280;59936;51.490;5.436;2022-11-15T15:51:23;99871.41;;;11.38;93.99
72055;BME280;59936;51.490;5.436;2022-11-15T15:56:25;99867.50;;;11.45;94.31
72055;BME280;59936;51.490;5.436;2022-11-15T16:01:28;99863.31;;;11.42;94.41
72055;BME280;59936;51.490;5.436;2022-11-15T16:06:37;99863.97;;;11.31;95.70
72055;BME280;59936;51.490;5.436;2022-11-15T16:11:44;99863.59;;;11.23;97.04
72055;BME280;59936;51.490;5.436;2022-11-15T16:16:48;99867.34;;;11.19;98.83
72055;BME280;59936;51.490;5.436;2022-11-15T16:21:51;99863.88;;;11.04;100.00
72055;BME280;59936;51.490;5.436;2022-11-15T16:26:54;99866.38;;;10.91;100.00
72055;BME280;59936;51.490;5.436;2022-11-15T16:31:56;99861.66;;;10.67;100.00
72055;BME280;59936;51.490;5.436;2022-11-15T16:36:59;99867.59;;;10.54;100.00
72055;BME280;59936;51.490;5.436;2022-11-15T16:42:04;99860.22;;;10.30;100.00
72055;BME280;59936;51.490;5.436;2022-11-15T16:47:15;99862.19;;;10.11;100.00
72055;BME280;59936;51.490;5.436;2022-11-15T16:52:21;99853.88;;;10.04;100.00
72055;BME280;59936;51.490;5.436;2022-11-15T16:57:23;99847.69;;;9.90;100.00
72055;BME280;59936;51.490;5.436;2022-11-15T17:02:26;99860.81;;;9.89;100.00
72055;BME280;59936;51.490;5.436;2022-11-15T17:07:29;99858.13;;;9.90;100.00
72055;BME280;59936;51.490;5.436;2022-11-15T17:12:32;99859.97;;;9.88;100.00
72055;BME280;59936;51.490;5.436;2022-11-15T17:17:33;99849.19;;;9.78;100.00
72055;BME280;59936;51.490;5.436;2022-11-15T17:22:36;99846.69;;;9.61;100.00
72055;BME280;59936;51.490;5.436;2022-11-15T17:27:38;99837.59;;;9.68;100.00
72055;BME280;59936;51.490;5.436;2022-11-15T17:32:40;99834.72;;;9.57;100.00
72055;BME280;59936;51.490;5.436;2022-11-15T17:37:44;99829.34;;;9.60;100.00
72055;BME280;59936;51.490;5.436;2022-11-15T17:42:47;99826.34;;;9.51;100.00
72055;BME280;59936;51.490;5.436;2022-11-15T17:47:49;99827.94;;;9.54;100.00
72055;BME280;59936;51.490;5.436;2022-11-15T17:52:53;99822.88;;;9.51;100.00
72055;BME280;59936;51.490;5.436;2022-11-15T17:58:08;99822.72;;;9.54;100.00
72055;BME280;59936;51.490;5.436;2022-11-15T18:03:14;99819.44;;;9.50;100.00
72055;BME280;59936;51.490;5.436;2022-11-15T18:08:17;99814.31;;;9.49;100.00
72055;BME280;59936;51.490;5.436;2022-11-15T18:13:21;99807.38;;;9.49;100.00
72055;BME280;59936;51.490;5.436;2022-11-15T18:18:23;99797.94;;;9.47;100.00
72055;BME280;59936;51.490;5.436;2022-11-15T18:23:26;99802.97;;;9.50;100.00
72055;BME280;59936;51.490;5.436;2022-11-15T18:28:29;99793.06;;;9.57;100.00
72055;BME280;59936;51.490;5.436;2022-11-15T18:33:33;99779.69;;;9.63;100.00
72055;BME280;59936;51.490;5.436;2022-11-15T18:38:36;99773.66;;;9.62;100.00
72055;BME280;59936;51.490;5.436;2022-11-15T18:43:40;99773.56;;;9.64;100.00
72055;BME280;59936;51.490;5.436;2022-11-15T18:48:43;99766.75;;;9.61;100.00
72055;BME280;59936;51.490;5.436;2022-11-15T18:53:51;99767.50;;;9.79;100.00
72055;BME280;59936;51.490;5.436;2022-11-15T18:58:55;99770.88;;;9.82;100.00
72055;BME280;59936;51.490;5.436;2022-11-15T19:04:02;99768.66;;;9.90;100.00
72055;BME280;59936;51.490;5.436;2022-11-15T19:09:08;99771.34;;;9.88;100.00
72055;BME280;59936;51.490;5.436;2022-11-15T19:14:14;99764.31;;;9.90;100.00
72055;BME280;59936;51.490;5.436;2022-11-15T19:19:18;99762.44;;;9.92;100.00
72055;BME280;59936;51.490;5.436;2022-11-15T19:24:22;99765.88;;;9.93;100.00
72055;BME280;59936;51.490;5.436;2022-11-15T19:29:24;99751.28;;;9.90;100.00
72055;BME280;59936;51.490;5.436;2022-11-15T19:34:25;99742.03;;;9.85;100.00
72055;BME280;59936;51.490;5.436;2022-11-15T19:39:28;99743.72;;;9.86;100.00
72055;BME280;59936;51.490;5.436;2022-11-15T19:44:30;99731.91;;;9.95;100.00
72055;BME280;59936;51.490;5.436;2022-11-15T19:49:32;99733.50;;;9.97;100.00
72055;BME280;59936;51.490;5.436;2022-11-15T19:54:35;99734.41;;;9.96;100.00
72055;BME280;59936;51.490;5.436;2022-11-15T19:59:36;99727.91;;;10.03;100.00
72055;BME280;59936;51.490;5.436;2022-11-15T20:04:39;99731.47;;;10.02;100.00
72055;BME280;59936;51.490;5.436;2022-11-15T20:09:42;99727.41;;;10.13;100.00
72055;BME280;59936;51.490;5.436;2022-11-15T20:14:45;99730.66;;;10.16;100.00
72055;BME280;59936;51.490;5.436;2022-11-15T20:19:47;99715.94;;;10.15;100.00
72055;BME280;59936;51.490;5.436;2022-11-15T20:24:50;99711.56;;;10.16;100.00
72055;BME280;59936;51.490;5.436;2022-11-15T20:29:51;99714.63;;;10.08;100.00
72055;BME280;59936;51.490;5.436;2022-11-15T20:34:56;99709.69;;;10.03;100.00
72055;BME280;59936;51.490;5.436;2022-11-15T20:39:59;99701.84;;;10.03;100.00
72055;BME280;59936;51.490;5.436;2022-11-15T20:45:03;99697.75;;;9.99;100.00
72055;BME280;59936;51.490;5.436;2022-11-15T20:50:06;99688.44;;;9.95;100.00
72055;BME280;59936;51.490;5.436;2022-11-15T20:55:13;99700.53;;;9.96;100.00
72055;BME280;59936;51.490;5.436;2022-11-15T21:00:16;99690.97;;;9.97;100.00
72055;BME280;59936;51.490;5.436;2022-11-15T21:05:21;99678.94;;;9.94;100.00
72055;BME280;59936;51.490;5.436;2022-11-15T21:10:24;99673.78;;;10.09;100.00
72055;BME280;59936;51.490;5.436;2022-11-15T21:15:43;99673.69;;;10.10;100.00
72055;BME280;59936;51.490;5.436;2022-11-15T21:20:45;99672.28;;;10.04;100.00
72055;BME280;59936;51.490;5.436;2022-11-15T21:25:48;99665.28;;;10.05;100.00
72055;BME280;59936;51.490;5.436;2022-11-15T21:30:52;99665.38;;;10.03;100.00
72055;BME280;59936;51.490;5.436;2022-11-15T21:35:56;99659.25;;;10.04;100.00
72055;BME280;59936;51.490;5.436;2022-11-15T21:41:01;99653.66;;;10.11;100.00
72055;BME280;59936;51.490;5.436;2022-11-15T21:46:05;99652.72;;;10.12;100.00
72055;BME280;59936;51.490;5.436;2022-11-15T21:51:09;99634.47;;;10.12;100.00
72055;BME280;59936;51.490;5.436;2022-11-15T21:56:13;99629.91;;;10.15;100.00
72055;BME280;59936;51.490;5.436;2022-11-15T22:01:14;99628.34;;;10.13;100.00
72055;BME280;59936;51.490;5.436;2022-11-15T22:06:49;99626.75;;;10.10;100.00
72055;BME280;59936;51.490;5.436;2022-11-15T22:12:12;99613.59;;;10.12;100.00
72055;BME280;59936;51.490;5.436;2022-11-15T22:17:21;99612.50;;;10.16;100.00
72055;BME280;59936;51.490;5.436;2022-11-15T22:22:47;99609.88;;;10.16;100.00
72055;BME280;59936;51.490;5.436;2022-11-15T22:27:53;99600.56;;;10.12;100.00
72055;BME280;59936;51.490;5.436;2022-11-15T22:32:55;99594.44;;;10.13;100.00
72055;BME280;59936;51.490;5.436;2022-11-15T22:38:03;99590.16;;;10.12;100.00
72055;BME280;59936;51.490;5.436;2022-11-15T22:43:19;99574.31;;;10.15;100.00
72055;BME280;59936;51.490;5.436;2022-11-15T22:48:24;99576.84;;;10.16;100.00
72055;BME280;59936;51.490;5.436;2022-11-15T22:53:27;99575.09;;;10.17;100.00
72055;BME280;59936;51.490;5.436;2022-11-15T22:58:31;99579.34;;;10.18;100.00
72055;BME280;59936;51.490;5.436;2022-11-15T23:03:33;99568.84;;;10.20;100.00
72055;BME280;59936;51.490;5.436;2022-11-15T23:08:35;99563.81;;;10.16;100.00
72055;BME280;59936;51.490;5.436;2022-11-15T23:13:39;99554.97;;;10.19;100.00
72055;BME280;59936;51.490;5.436;2022-11-15T23:18:41;99561.88;;;10.20;100.00
72055;BME280;59936;51.490;5.436;2022-11-15T23:23:42;99568.00;;;10.19;100.00
72055;BME280;59936;51.490;5.436;2022-11-15T23:28:45;99567.91;;;10.21;100.00
72055;BME280;59936;51.490;5.436;2022-11-15T23:33:48;99560.84;;;10.23;100.00
72055;BME280;59936;51.490;5.436;2022-11-15T23:38:59;99560.00;;;10.22;100.00
72055;BME280;59936;51.490;5.436;2022-11-15T23:44:03;99549.38;;;10.25;100.00
72055;BME280;59936;51.490;5.436;2022-11-15T23:49:05;99560.00;;;10.22;100.00
72055;BME280;59936;51.490;5.436;2022-11-15T23:54:07;99552.91;;;10.24;100.00
72055;BME280;59936;51.490;5.436;2022-11-15T23:59:10;99552.72;;;10.27;100.00
